Time;durP1;ratioP1;P1;durP2;ratioP2;P2;SDS_P1;SDS_P2;PMS_P1;PMS_P2;Temp;Humidity;BMP_temperature;BMP_pressure;BME280_temperature;BME280_humidity;BME280_pressure;Samples;Min_cycle;Max_cycle;Signal;HPM_P1;HPM_P2
2023/03/14 00:02:11;;;;;;;2.17;0.90;;;;;;;;;;4973949;28;20314;-69
2023/03/14 00:04:38;;;;;;;1.33;1.20;;;;;;;;;;4964421;28;20105;-69
2023/03/14 00:07:04;;;;;;;0.70;0.70;;;;;;;;;;4958525;28;20114;-69
2023/03/14 00:09:30;;;;;;;1.88;0.85;;;;;;;;;;4985011;28;20046;-69
2023/03/14 00:11:57;;;;;;;1.40;0.90;;;;;;;;;;4972301;28;20047;-69
2023/03/14 00:14:23;;;;;;;0.90;0.70;;;;;;;;;;4978766;28;20389;-69
2023/03/14 00:16:49;;;;;;;0.65;0.65;;;;;;;;;;4954880;28;20418;-69
2023/03/14 00:19:16;;;;;;;1.98;0.90;;;;;;;;;;4968866;28;20034;-68
2023/03/14 00:21:46;;;;;;;0.90;0.75;;;;;;;;;;4971940;28;20050;-69
2023/03/14 00:24:12;;;;;;;2.40;0.93;;;;;;;;;;4948396;28;20046;-69
2023/03/14 00:26:37;;;;;;;2.50;0.90;;;;;;;;;;4973154;28;20046;-71
2023/03/14 00:29:05;;;;;;;1.52;0.90;;;;;;;;;;4949690;28;20125;-72
2023/03/14 00:31:30;;;;;;;0.85;0.85;;;;;;;;;;4969156;28;20164;-71
2023/03/14 00:33:56;;;;;;;1.20;0.90;;;;;;;;;;4945038;28;20074;-71
2023/03/14 00:36:23;;;;;;;0.90;0.90;;;;;;;;;;4943627;28;20097;-71
2023/03/14 00:38:51;;;;;;;4.95;1.20;;;;;;;;;;4961686;28;20051;-70
2023/03/14 00:41:19;;;;;;;3.22;1.10;;;;;;;;;;4940699;28;20137;-70
2023/03/14 00:43:45;;;;;;;1.20;1.10;;;;;;;;;;4944004;28;20109;-70
2023/03/14 00:46:10;;;;;;;1.77;1.38;;;;;;;;;;4961453;28;20055;-70
2023/03/14 00:48:36;;;;;;;1.25;1.15;;;;;;;;;;4943364;28;20050;-71
2023/03/14 00:51:06;;;;;;;1.27;1.17;;;;;;;;;;4969320;28;20043;-70
2023/03/14 00:53:35;;;;;;;5.35;1.40;;;;;;;;;;4943657;28;20498;-71
2023/03/14 00:56:11;;;;;;;2.53;1.30;;;;;;;;;;4960760;28;20104;-70
2023/03/14 00:58:37;;;;;;;1.50;1.10;;;;;;;;;;4956833;28;20097;-70
2023/03/14 01:01:14;;;;;;;1.40;1.08;;;;;;;;;;4965432;28;20463;-70
2023/03/14 01:03:39;;;;;;;1.13;0.95;;;;;;;;;;4945871;28;20054;-71
2023/03/14 01:06:16;;;;;;;3.95;1.10;;;;;;;;;;4943359;28;20069;-71
2023/03/14 01:08:43;;;;;;;2.20;1.30;;;;;;;;;;4960179;28;20051;-71
2023/03/14 01:11:12;;;;;;;3.95;1.17;;;;;;;;;;4942658;28;20050;-70
2023/03/14 01:13:38;;;;;;;2.13;1.20;;;;;;;;;;4961003;28;20051;-71
2023/03/14 01:16:06;;;;;;;1.20;1.10;;;;;;;;;;4943865;28;20905;-71
2023/03/14 01:18:32;;;;;;;1.15;1.13;;;;;;;;;;4963896;28;20046;-71
2023/03/14 01:20:58;;;;;;;1.70;1.10;;;;;;;;;;4961557;28;20047;-71
2023/03/14 01:23:23;;;;;;;1.50;1.02;;;;;;;;;;4961330;28;20054;-71
2023/03/14 01:25:49;;;;;;;2.65;1.40;;;;;;;;;;4960533;28;20101;-72
2023/03/14 01:28:15;;;;;;;2.95;1.20;;;;;;;;;;4958276;28;20046;-71
2023/03/14 01:30:41;;;;;;;2.28;1.00;;;;;;;;;;4942026;28;20628;-72
2023/03/14 01:33:07;;;;;;;1.73;1.10;;;;;;;;;;4942998;28;20043;-72
2023/03/14 01:35:32;;;;;;;2.22;1.00;;;;;;;;;;4943143;28;20051;-71
2023/03/14 01:37:58;;;;;;;2.75;0.70;;;;;;;;;;4943726;28;20075;-70
2023/03/14 01:40:24;;;;;;;0.70;0.52;;;;;;;;;;4961185;28;20089;-70
2023/03/14 01:42:58;;;;;;;0.60;0.60;;;;;;;;;;4943434;28;20054;-70
2023/03/14 01:46:11;;;;;;;0.50;0.50;;;;;;;;;;4941906;28;20069;-71
2023/03/14 01:48:55;;;;;;;0.40;0.40;;;;;;;;;;4964474;28;20642;-70
2023/03/14 01:51:31;;;;;;;0.95;0.50;;;;;;;;;;4960358;28;20057;-71
2023/03/14 01:54:05;;;;;;;0.40;0.40;;;;;;;;;;4952086;28;20038;-70
2023/03/14 01:56:31;;;;;;;0.40;0.40;;;;;;;;;;4942870;28;20042;-70
2023/03/14 01:59:00;;;;;;;0.60;0.50;;;;;;;;;;4951728;28;20061;-70
2023/03/14 02:01:26;;;;;;;0.40;0.40;;;;;;;;;;4942997;28;20050;-70
2023/03/14 02:03:59;;;;;;;0.75;0.40;;;;;;;;;;4960794;28;20517;-70
2023/03/14 02:06:39;;;;;;;1.63;0.40;;;;;;;;;;4942584;28;20043;-70
2023/03/14 02:09:04;;;;;;;0.60;0.45;;;;;;;;;;4959571;28;20047;-70
2023/03/14 02:11:33;;;;;;;2.28;0.55;;;;;;;;;;4959005;28;20042;-70
2023/03/14 02:14:18;;;;;;;0.40;0.40;;;;;;;;;;4950352;28;20053;-70
2023/03/14 02:17:14;;;;;;;1.42;0.50;;;;;;;;;;4944553;28;20054;-70
2023/03/14 02:20:11;;;;;;;0.50;0.50;;;;;;;;;;4943575;28;20967;-70
2023/03/14 02:22:44;;;;;;;0.45;0.45;;;;;;;;;;4943343;28;20836;-70
2023/03/14 02:25:24;;;;;;;1.20;0.40;;;;;;;;;;4941781;28;20039;-70
2023/03/14 02:27:50;;;;;;;2.38;0.50;;;;;;;;;;4958578;28;20054;-70
2023/03/14 02:30:24;;;;;;;1.45;0.50;;;;;;;;;;4946461;28;20046;-69
2023/03/14 02:33:07;;;;;;;3.20;0.43;;;;;;;;;;4946643;28;20162;-70
2023/03/14 02:35:40;;;;;;;3.17;0.50;;;;;;;;;;4963543;28;20441;-70
2023/03/14 02:38:17;;;;;;;0.40;0.40;;;;;;;;;;4947069;28;20413;-70
2023/03/14 02:40:45;;;;;;;0.60;0.35;;;;;;;;;;4946397;28;20125;-70
2023/03/14 02:43:11;;;;;;;0.30;0.30;;;;;;;;;;4957472;28;20043;-70
2023/03/14 02:45:44;;;;;;;0.70;0.47;;;;;;;;;;4953495;28;20469;-70
2023/03/14 02:48:34;;;;;;;0.30;0.28;;;;;;;;;;4963939;28;20039;-70
2023/03/14 02:51:00;;;;;;;0.20;0.20;;;;;;;;;;4972727;28;20504;-70
2023/03/14 02:53:33;;;;;;;4.38;0.38;;;;;;;;;;4936136;28;20046;-69
2023/03/14 02:56:04;;;;;;;0.65;0.30;;;;;;;;;;4946073;28;20153;-70
2023/03/14 02:58:31;;;;;;;0.20;0.20;;;;;;;;;;4946551;28;20811;-70
2023/03/14 03:01:16;;;;;;;0.28;0.20;;;;;;;;;;4956076;28;20047;-70
2023/03/14 03:03:42;;;;;;;0.22;0.22;;;;;;;;;;4945717;28;20130;-70
2023/03/14 03:06:07;;;;;;;0.30;0.30;;;;;;;;;;4963010;28;20130;-70
2023/03/14 03:08:33;;;;;;;0.30;0.30;;;;;;;;;;4946041;28;20419;-70
2023/03/14 03:10:59;;;;;;;0.65;0.25;;;;;;;;;;4946064;28;20042;-70
2023/03/14 03:13:27;;;;;;;1.05;0.43;;;;;;;;;;4944874;28;20053;-70
2023/03/14 03:15:54;;;;;;;0.30;0.30;;;;;;;;;;4945693;28;20589;-70
2023/03/14 03:18:20;;;;;;;0.38;0.30;;;;;;;;;;4945895;28;20051;-70
2023/03/14 03:20:46;;;;;;;0.30;0.30;;;;;;;;;;4945736;28;20047;-70
2023/03/14 03:23:12;;;;;;;0.35;0.35;;;;;;;;;;4944780;28;20105;-70
2023/03/14 03:25:37;;;;;;;0.63;0.30;;;;;;;;;;4962365;28;20051;-70
2023/03/14 03:28:07;;;;;;;0.20;0.20;;;;;;;;;;4946181;28;20133;-70
2023/03/14 03:30:39;;;;;;;0.25;0.20;;;;;;;;;;4945949;28;20042;-70
2023/03/14 03:33:05;;;;;;;0.30;0.30;;;;;;;;;;4962509;28;20043;-70
2023/03/14 03:35:31;;;;;;;0.10;0.10;;;;;;;;;;4946803;28;20039;-70
2023/03/14 03:37:57;;;;;;;0.13;0.13;;;;;;;;;;4945612;28;20042;-71
2023/03/14 03:40:23;;;;;;;0.30;0.30;;;;;;;;;;4962962;28;20047;-71
2023/03/14 03:42:48;;;;;;;0.28;0.28;;;;;;;;;;4959717;28;20050;-71
2023/03/14 03:45:15;;;;;;;0.20;0.20;;;;;;;;;;4948767;28;20439;-71
2023/03/14 03:47:50;;;;;;;0.15;0.15;;;;;;;;;;4945156;28;20066;-71
2023/03/14 03:50:15;;;;;;;0.20;0.20;;;;;;;;;;4956028;28;20042;-71
2023/03/14 03:52:41;;;;;;;0.20;0.20;;;;;;;;;;4945332;28;20386;-70
2023/03/14 03:55:07;;;;;;;0.13;0.13;;;;;;;;;;4961665;28;20054;-71
2023/03/14 03:57:32;;;;;;;0.20;0.20;;;;;;;;;;4944429;28;20051;-70
2023/03/14 03:59:58;;;;;;;0.20;0.20;;;;;;;;;;4962341;28;20053;-71
2023/03/14 04:02:23;;;;;;;0.30;0.30;;;;;;;;;;4944848;28;20046;-71
2023/03/14 04:04:49;;;;;;;0.10;0.10;;;;;;;;;;4961752;28;20465;-70
2023/03/14 04:07:16;;;;;;;0.63;0.20;;;;;;;;;;4961921;28;20043;-69
2023/03/14 04:09:43;;;;;;;0.17;0.17;;;;;;;;;;4947886;28;20054;-69
2023/03/14 04:12:19;;;;;;;0.20;0.20;;;;;;;;;;4966425;28;20470;-70
2023/03/14 04:14:58;;;;;;;0.20;0.20;;;;;;;;;;4960475;28;20058;-70
2023/03/14 04:17:24;;;;;;;0.20;0.10;;;;;;;;;;4961715;28;20058;-70
2023/03/14 04:19:51;;;;;;;0.20;0.20;;;;;;;;;;4964708;28;20130;-70
2023/03/14 04:22:18;;;;;;;0.35;0.35;;;;;;;;;;4945006;28;20046;-70
2023/03/14 04:24:49;;;;;;;0.30;0.30;;;;;;;;;;4944297;28;20046;-70
2023/03/14 04:27:14;;;;;;;0.10;0.10;;;;;;;;;;4946733;28;20034;-70
2023/03/14 04:29:42;;;;;;;0.20;0.20;;;;;;;;;;4946055;28;20062;-70
2023/03/14 04:32:09;;;;;;;0.50;0.50;;;;;;;;;;4945008;28;20038;-70
2023/03/14 04:34:36;;;;;;;0.20;0.20;;;;;;;;;;4943920;28;20069;-70
2023/03/14 04:37:03;;;;;;;0.57;0.28;;;;;;;;;;4944036;28;20038;-70
2023/03/14 04:39:34;;;;;;;1.63;0.30;;;;;;;;;;4956606;28;20054;-70
2023/03/14 04:42:13;;;;;;;0.65;0.20;;;;;;;;;;4944785;28;20042;-71
2023/03/14 04:44:39;;;;;;;0.20;0.20;;;;;;;;;;4952699;28;20124;-70
2023/03/14 04:47:05;;;;;;;1.65;0.38;;;;;;;;;;4943992;28;20454;-71
2023/03/14 04:49:31;;;;;;;0.20;0.20;;;;;;;;;;4955290;28;20049;-71
2023/03/14 04:51:57;;;;;;;1.55;0.45;;;;;;;;;;4962355;28;20133;-71
2023/03/14 04:54:25;;;;;;;0.40;0.40;;;;;;;;;;4951584;28;20149;-70
2023/03/14 04:56:55;;;;;;;0.20;0.20;;;;;;;;;;4943880;28;20094;-70
2023/03/14 04:59:21;;;;;;;0.20;0.20;;;;;;;;;;4943607;28;20035;-71
2023/03/14 05:01:48;;;;;;;0.20;0.20;;;;;;;;;;4944143;28;20047;-70
2023/03/14 05:04:42;;;;;;;0.22;0.22;;;;;;;;;;4950042;28;20129;-70
2023/03/14 05:07:28;;;;;;;0.40;0.30;;;;;;;;;;4942990;28;20053;-70
2023/03/14 05:10:04;;;;;;;0.32;0.32;;;;;;;;;;4943895;28;20074;-70
2023/03/14 05:12:53;;;;;;;0.73;0.50;;;;;;;;;;4959575;28;20463;-70
2023/03/14 05:15:41;;;;;;;0.30;0.30;;;;;;;;;;4937747;28;20051;-70
2023/03/14 05:18:42;;;;;;;0.45;0.35;;;;;;;;;;4864432;29;20136;-70
2023/03/14 05:21:30;;;;;;;0.73;0.20;;;;;;;;;;4955567;28;20039;-70
2023/03/14 05:24:10;;;;;;;0.20;0.20;;;;;;;;;;4966145;28;20055;-70
2023/03/14 05:27:13;;;;;;;0.65;0.30;;;;;;;;;;4960019;28;20038;-70
2023/03/14 05:29:57;;;;;;;0.95;0.40;;;;;;;;;;4953057;28;20150;-70
2023/03/14 05:32:39;;;;;;;4.65;0.60;;;;;;;;;;4964866;28;20043;-70
2023/03/14 05:35:05;;;;;;;0.20;0.20;;;;;;;;;;4968002;28;20043;-70
2023/03/14 05:37:48;;;;;;;0.20;0.20;;;;;;;;;;4942310;28;20100;-70
2023/03/14 05:40:38;;;;;;;1.38;0.30;;;;;;;;;;4956517;28;20042;-70
2023/03/14 05:43:04;;;;;;;0.30;0.30;;;;;;;;;;4961347;28;20418;-70
2023/03/14 05:45:50;;;;;;;0.57;0.30;;;;;;;;;;4935140;28;20058;-70
2023/03/14 05:48:28;;;;;;;0.25;0.20;;;;;;;;;;4949597;28;20039;-70
2023/03/14 05:51:07;;;;;;;1.20;0.22;;;;;;;;;;4972313;28;20047;-70
2023/03/14 05:53:50;;;;;;;0.40;0.40;;;;;;;;;;4967164;28;20051;-70
2023/03/14 05:56:34;;;;;;;0.20;0.20;;;;;;;;;;4967728;28;20061;-70
2023/03/14 05:59:13;;;;;;;0.45;0.20;;;;;;;;;;4949741;28;20042;-70
2023/03/14 06:01:57;;;;;;;0.15;0.15;;;;;;;;;;4950290;28;20108;-70
2023/03/14 06:04:26;;;;;;;0.10;0.10;;;;;;;;;;4945792;28;20047;-70
2023/03/14 06:06:55;;;;;;;0.22;0.20;;;;;;;;;;4952413;28;20046;-69
2023/03/14 06:09:23;;;;;;;2.00;0.28;;;;;;;;;;4950466;28;21316;-70
2023/03/14 06:11:49;;;;;;;0.30;0.20;;;;;;;;;;4951884;28;20524;-70
2023/03/14 06:14:16;;;;;;;0.35;0.20;;;;;;;;;;4956076;28;20065;-70
2023/03/14 06:16:47;;;;;;;1.95;0.32;;;;;;;;;;4971269;28;20042;-69
2023/03/14 06:19:13;;;;;;;0.25;0.25;;;;;;;;;;4954484;28;20042;-70
2023/03/14 06:21:40;;;;;;;0.20;0.20;;;;;;;;;;4956535;28;20137;-70
2023/03/14 06:24:05;;;;;;;0.52;0.38;;;;;;;;;;4953371;28;20548;-70
2023/03/14 06:26:36;;;;;;;0.93;0.10;;;;;;;;;;4955722;28;20085;-70
2023/03/14 06:29:03;;;;;;;0.20;0.20;;;;;;;;;;4955238;28;20050;-70
2023/03/14 06:31:30;;;;;;;0.30;0.20;;;;;;;;;;4956264;28;20520;-70
2023/03/14 06:34:00;;;;;;;0.10;0.10;;;;;;;;;;4973880;28;20320;-69
2023/03/14 06:36:28;;;;;;;0.20;0.20;;;;;;;;;;4957329;28;20057;-70
2023/03/14 06:38:55;;;;;;;0.13;0.13;;;;;;;;;;4957695;28;20046;-70
2023/03/14 06:41:23;;;;;;;0.20;0.20;;;;;;;;;;4956900;28;20050;-70
2023/03/14 06:43:49;;;;;;;0.20;0.20;;;;;;;;;;4974506;28;20066;-70
2023/03/14 06:46:15;;;;;;;1.48;0.30;;;;;;;;;;4952255;28;20143;-70
2023/03/14 06:48:41;;;;;;;0.32;0.30;;;;;;;;;;4972850;28;20054;-70
2023/03/14 06:51:07;;;;;;;0.20;0.20;;;;;;;;;;4971779;28;20073;-70
2023/03/14 06:53:33;;;;;;;0.43;0.30;;;;;;;;;;4966839;28;20189;-70
2023/03/14 06:56:00;;;;;;;0.98;0.40;;;;;;;;;;4956295;28;20047;-70
2023/03/14 06:58:27;;;;;;;0.20;0.20;;;;;;;;;;4959134;28;20039;-70
2023/03/14 07:00:54;;;;;;;0.50;0.30;;;;;;;;;;4973444;28;20074;-70
2023/03/14 07:03:23;;;;;;;0.63;0.50;;;;;;;;;;4956695;28;20057;-70
2023/03/14 07:05:52;;;;;;;0.63;0.50;;;;;;;;;;4956696;28;20527;-70
2023/03/14 07:08:17;;;;;;;0.65;0.65;;;;;;;;;;4958157;28;20109;-70
2023/03/14 07:10:43;;;;;;;0.93;0.60;;;;;;;;;;4968586;28;20046;-70
2023/03/14 07:13:09;;;;;;;1.35;0.40;;;;;;;;;;4958303;28;20034;-71
2023/03/14 07:15:44;;;;;;;0.35;0.35;;;;;;;;;;4971621;28;20046;-71
2023/03/14 07:18:10;;;;;;;0.73;0.70;;;;;;;;;;4955655;28;20058;-70
2023/03/14 07:20:35;;;;;;;0.88;0.80;;;;;;;;;;4972067;28;20050;-71
2023/03/14 07:23:03;;;;;;;0.38;0.38;;;;;;;;;;4952335;28;20089;-71
2023/03/14 07:25:48;;;;;;;1.02;0.40;;;;;;;;;;4943382;28;20101;-71
2023/03/14 07:28:16;;;;;;;0.77;0.52;;;;;;;;;;4956913;28;20039;-71
2023/03/14 07:30:46;;;;;;;1.02;0.65;;;;;;;;;;4956032;28;20101;-71
2023/03/14 07:33:16;;;;;;;0.60;0.52;;;;;;;;;;4954501;28;20061;-71
2023/03/14 07:35:42;;;;;;;0.50;0.50;;;;;;;;;;4953345;28;20136;-71
2023/03/14 07:38:08;;;;;;;0.88;0.47;;;;;;;;;;4953589;28;20141;-70
2023/03/14 07:40:38;;;;;;;0.60;0.60;;;;;;;;;;4952367;28;20047;-70
2023/03/14 07:43:05;;;;;;;1.75;0.47;;;;;;;;;;4953417;28;20043;-70
2023/03/14 07:45:47;;;;;;;0.85;0.57;;;;;;;;;;4954737;28;20046;-70
2023/03/14 07:48:12;;;;;;;1.13;0.50;;;;;;;;;;4972632;28;20050;-70
2023/03/14 07:50:37;;;;;;;1.52;0.50;;;;;;;;;;4976991;28;20046;-70
2023/03/14 07:53:03;;;;;;;0.43;0.40;;;;;;;;;;4968231;28;20102;-71
2023/03/14 07:55:28;;;;;;;0.52;0.40;;;;;;;;;;4969129;28;20137;-70
2023/03/14 07:57:54;;;;;;;0.30;0.30;;;;;;;;;;4973699;28;20042;-70
2023/03/14 08:00:19;;;;;;;0.35;0.35;;;;;;;;;;4971006;28;20137;-70
2023/03/14 08:02:45;;;;;;;0.47;0.40;;;;;;;;;;4977412;28;20050;-70
2023/03/14 08:05:10;;;;;;;0.40;0.40;;;;;;;;;;4974270;28;20034;-70
2023/03/14 08:07:36;;;;;;;0.40;0.40;;;;;;;;;;4976992;28;20141;-70
2023/03/14 08:10:02;;;;;;;0.68;0.43;;;;;;;;;;4968280;28;20404;-70
2023/03/14 08:12:27;;;;;;;0.77;0.60;;;;;;;;;;4972422;28;20045;-70
2023/03/14 08:14:53;;;;;;;0.43;0.43;;;;;;;;;;4968273;28;20097;-70
2023/03/14 08:17:18;;;;;;;0.47;0.40;;;;;;;;;;4966937;28;20038;-70
2023/03/14 08:19:44;;;;;;;2.17;0.68;;;;;;;;;;4970414;28;20084;-70
2023/03/14 08:22:09;;;;;;;0.60;0.60;;;;;;;;;;4969197;28;20066;-70
2023/03/14 08:24:34;;;;;;;0.93;0.70;;;;;;;;;;4972331;28;20060;-70
2023/03/14 08:27:00;;;;;;;6.22;0.70;;;;;;;;;;4971327;28;20085;-70
2023/03/14 08:29:25;;;;;;;0.65;0.60;;;;;;;;;;4970776;28;20050;-70
2023/03/14 08:31:51;;;;;;;0.93;0.93;;;;;;;;;;4964103;28;20053;-70
2023/03/14 08:34:16;;;;;;;1.80;0.60;;;;;;;;;;4974641;28;20619;-70
2023/03/14 08:36:42;;;;;;;1.45;0.63;;;;;;;;;;4961983;28;20666;-70
2023/03/14 08:39:08;;;;;;;3.42;0.70;;;;;;;;;;4970937;28;20050;-70
2023/03/14 08:41:39;;;;;;;3.20;0.88;;;;;;;;;;4962133;28;20050;-70
2023/03/14 08:44:06;;;;;;;1.52;0.85;;;;;;;;;;4964929;28;20785;-70
2023/03/14 08:46:31;;;;;;;2.85;1.00;;;;;;;;;;4963239;28;20046;-69
2023/03/14 08:48:57;;;;;;;3.92;1.77;;;;;;;;;;4973108;28;20057;-69
2023/03/14 08:51:22;;;;;;;4.60;2.05;;;;;;;;;;4961083;28;20142;-69
2023/03/14 08:53:47;;;;;;;2.03;1.30;;;;;;;;;;4963375;28;20051;-70
2023/03/14 08:56:13;;;;;;;1.13;0.93;;;;;;;;;;4961408;28;20061;-70
2023/03/14 08:58:38;;;;;;;1.23;0.98;;;;;;;;;;4963956;28;20047;-70
2023/03/14 09:01:09;;;;;;;1.17;0.98;;;;;;;;;;4967146;28;20050;-70
2023/03/14 09:03:34;;;;;;;5.93;1.38;;;;;;;;;;4972866;28;20074;-69
2023/03/14 09:06:04;;;;;;;3.67;1.58;;;;;;;;;;4966690;28;20137;-69
2023/03/14 09:08:30;;;;;;;1.48;1.20;;;;;;;;;;4970771;28;20122;-69
2023/03/14 09:10:56;;;;;;;1.58;1.33;;;;;;;;;;4965572;28;20058;-71
2023/03/14 09:13:21;;;;;;;2.42;1.33;;;;;;;;;;4967105;28;20038;-70
2023/03/14 09:15:51;;;;;;;4.30;1.10;;;;;;;;;;4972023;28;20057;-70
2023/03/14 09:18:16;;;;;;;2.00;1.48;;;;;;;;;;4974537;28;20042;-70
2023/03/14 09:20:42;;;;;;;1.63;1.42;;;;;;;;;;4970680;28;20056;-71
2023/03/14 09:23:07;;;;;;;2.45;1.45;;;;;;;;;;4971535;28;20042;-71
2023/03/14 09:25:32;;;;;;;1.65;1.40;;;;;;;;;;4970719;28;20062;-71
2023/03/14 09:27:58;;;;;;;3.45;1.58;;;;;;;;;;4968316;28;20050;-71
2023/03/14 09:30:23;;;;;;;2.75;1.33;;;;;;;;;;4967474;28;20059;-71
2023/03/14 09:32:49;;;;;;;1.90;1.30;;;;;;;;;;4970028;28;20061;-70
2023/03/14 09:35:14;;;;;;;1.88;1.20;;;;;;;;;;4970670;28;20049;-71
2023/03/14 09:37:39;;;;;;;2.05;1.48;;;;;;;;;;4964282;28;20058;-70
2023/03/14 09:40:10;;;;;;;2.35;1.20;;;;;;;;;;4967532;28;20042;-71
2023/03/14 09:42:38;;;;;;;3.20;1.25;;;;;;;;;;4965327;28;20055;-71
2023/03/14 09:45:06;;;;;;;1.45;1.05;;;;;;;;;;4975769;28;20101;-71
2023/03/14 09:47:34;;;;;;;4.50;1.35;;;;;;;;;;4963306;28;20129;-71
2023/03/14 09:50:01;;;;;;;1.65;1.17;;;;;;;;;;4964996;28;20051;-71
2023/03/14 09:52:31;;;;;;;1.02;0.68;;;;;;;;;;4965142;28;20058;-71
2023/03/14 09:55:05;;;;;;;1.00;0.80;;;;;;;;;;4953904;28;20097;-71
2023/03/14 09:57:33;;;;;;;1.30;0.95;;;;;;;;;;4974423;28;20046;-70
2023/03/14 10:00:13;;;;;;;1.73;1.17;;;;;;;;;;4966993;28;20050;-70
2023/03/14 10:02:42;;;;;;;2.35;1.00;;;;;;;;;;4976865;28;20054;-71
2023/03/14 10:05:15;;;;;;;3.42;1.40;;;;;;;;;;4976115;28;20043;-70
2023/03/14 10:07:40;;;;;;;1.33;1.23;;;;;;;;;;4941414;28;20938;-70
2023/03/14 10:10:13;;;;;;;2.97;1.27;;;;;;;;;;4977782;28;20153;-70
2023/03/14 10:12:38;;;;;;;1.83;1.23;;;;;;;;;;4977091;28;20061;-70
2023/03/14 10:15:22;;;;;;;4.15;2.20;;;;;;;;;;4973300;28;20050;-70
2023/03/14 10:17:50;;;;;;;1.40;1.20;;;;;;;;;;4943782;28;20054;-70
2023/03/14 10:20:32;;;;;;;2.30;1.40;;;;;;;;;;4972173;28;20046;-70
2023/03/14 10:23:05;;;;;;;1.25;1.15;;;;;;;;;;4978548;28;20054;-70
2023/03/14 10:25:33;;;;;;;3.35;1.40;;;;;;;;;;4971085;28;21198;-70
2023/03/14 10:27:59;;;;;;;1.25;1.02;;;;;;;;;;4976168;28;20108;-71
2023/03/14 10:30:49;;;;;;;1.20;1.10;;;;;;;;;;4979100;28;20054;-71
2023/03/14 10:33:25;;;;;;;1.38;1.23;;;;;;;;;;4973823;28;20042;-72
2023/03/14 10:35:58;;;;;;;1.42;1.20;;;;;;;;;;4974525;28;20096;-72
2023/03/14 10:38:26;;;;;;;2.97;1.38;;;;;;;;;;4973202;28;20050;-72
2023/03/14 10:40:53;;;;;;;3.45;1.52;;;;;;;;;;4974996;28;20066;-72
2023/03/14 10:43:26;;;;;;;3.65;1.60;;;;;;;;;;4972490;28;20129;-72
2023/03/14 10:45:57;;;;;;;2.55;1.63;;;;;;;;;;4972191;28;20054;-71
2023/03/14 10:48:37;;;;;;;4.75;1.65;;;;;;;;;;4975402;28;20046;-72
2023/03/14 10:51:17;;;;;;;1.80;1.48;;;;;;;;;;4971028;28;20169;-72
2023/03/14 10:53:55;;;;;;;2.03;1.73;;;;;;;;;;4964340;28;20058;-71
2023/03/14 10:56:23;;;;;;;1.70;1.33;;;;;;;;;;4974355;28;20688;-71
2023/03/14 10:58:51;;;;;;;3.20;1.27;;;;;;;;;;4973723;28;20043;-70
2023/03/14 11:01:41;;;;;;;1.10;0.90;;;;;;;;;;4973274;28;20049;-71
2023/03/14 11:04:31;;;;;;;2.90;1.20;;;;;;;;;;4975784;28;20121;-71
2023/03/14 11:07:27;;;;;;;2.42;0.85;;;;;;;;;;4972650;28;20046;-71
2023/03/14 11:10:00;;;;;;;2.20;0.98;;;;;;;;;;4946529;28;20711;-71
2023/03/14 11:12:47;;;;;;;0.80;0.80;;;;;;;;;;4973798;28;20037;-72
2023/03/14 11:15:34;;;;;;;3.35;0.63;;;;;;;;;;4972862;28;20141;-71
2023/03/14 11:18:18;;;;;;;0.60;0.60;;;;;;;;;;4969605;28;20153;-72
2023/03/14 11:21:02;;;;;;;0.50;0.50;;;;;;;;;;4971205;28;20062;-71
2023/03/14 11:23:32;;;;;;;0.60;0.60;;;;;;;;;;4972391;28;23047;-71
2023/03/14 11:26:37;;;;;;;0.40;0.40;;;;;;;;;;4967539;28;20070;-71
2023/03/14 11:29:19;;;;;;;0.60;0.60;;;;;;;;;;4972131;28;20480;-71
2023/03/14 11:31:46;;;;;;;0.70;0.70;;;;;;;;;;4943744;28;20050;-72
2023/03/14 11:34:18;;;;;;;0.40;0.40;;;;;;;;;;4970054;28;20078;-73
2023/03/14 11:36:52;;;;;;;1.38;0.50;;;;;;;;;;4972417;28;20085;-71
2023/03/14 11:39:19;;;;;;;1.55;0.45;;;;;;;;;;4969895;28;20042;-72
2023/03/14 11:41:53;;;;;;;1.00;0.40;;;;;;;;;;4968801;28;20078;-72
2023/03/14 11:44:25;;;;;;;0.30;0.30;;;;;;;;;;4971147;28;20054;-72
2023/03/14 11:47:04;;;;;;;0.50;0.45;;;;;;;;;;4971368;28;20051;-72
2023/03/14 11:50:01;;;;;;;0.98;0.50;;;;;;;;;;4973637;28;20061;-72
2023/03/14 11:52:34;;;;;;;1.02;0.63;;;;;;;;;;4975592;28;20137;-72
2023/03/14 11:55:27;;;;;;;0.50;0.50;;;;;;;;;;4973678;28;20061;-72
2023/03/14 11:58:01;;;;;;;0.60;0.60;;;;;;;;;;4944406;28;20042;-72
2023/03/14 12:00:27;;;;;;;0.68;0.50;;;;;;;;;;4973371;28;20489;-72
2023/03/14 12:03:21;;;;;;;0.50;0.50;;;;;;;;;;4970759;28;20054;-72
2023/03/14 12:06:01;;;;;;;1.40;0.73;;;;;;;;;;4956019;28;20970;-73
2023/03/14 12:08:46;;;;;;;0.57;0.50;;;;;;;;;;4971900;28;20494;-72
2023/03/14 12:11:36;;;;;;;0.30;0.30;;;;;;;;;;4972876;28;20046;-73
2023/03/14 12:14:02;;;;;;;0.28;0.20;;;;;;;;;;4974335;28;20051;-72
2023/03/14 12:16:35;;;;;;;0.30;0.30;;;;;;;;;;4968528;28;20650;-71
2023/03/14 12:19:20;;;;;;;0.70;0.30;;;;;;;;;;4974086;28;20117;-71
2023/03/14 12:22:07;;;;;;;1.75;0.30;;;;;;;;;;4926767;28;20046;-72
2023/03/14 12:24:36;;;;;;;0.50;0.40;;;;;;;;;;4971375;28;20100;-71
2023/03/14 12:27:05;;;;;;;0.43;0.30;;;;;;;;;;4970320;28;20047;-71
2023/03/14 12:29:30;;;;;;;0.57;0.40;;;;;;;;;;4972982;28;20128;-71
2023/03/14 12:32:24;;;;;;;0.30;0.30;;;;;;;;;;4972327;28;20752;-71
2023/03/14 12:34:50;;;;;;;0.30;0.30;;;;;;;;;;4970917;28;20048;-71
2023/03/14 12:37:34;;;;;;;0.40;0.40;;;;;;;;;;4973017;28;20050;-72
2023/03/14 12:40:18;;;;;;;2.17;0.50;;;;;;;;;;4971477;28;20550;-71
2023/03/14 12:42:58;;;;;;;0.30;0.30;;;;;;;;;;4951867;28;20046;-71
2023/03/14 12:45:23;;;;;;;3.50;0.40;;;;;;;;;;4965353;28;20042;-71
2023/03/14 12:47:55;;;;;;;0.30;0.30;;;;;;;;;;4970585;28;20073;-72
2023/03/14 12:50:25;;;;;;;0.20;0.20;;;;;;;;;;4967740;28;20049;-72
2023/03/14 12:53:19;;;;;;;2.25;0.30;;;;;;;;;;4972247;28;20050;-72
2023/03/14 12:55:53;;;;;;;0.30;0.30;;;;;;;;;;4934507;28;20061;-72
2023/03/14 12:58:27;;;;;;;2.78;0.50;;;;;;;;;;4973380;28;20042;-71
2023/03/14 13:00:59;;;;;;;0.55;0.30;;;;;;;;;;4970557;28;20062;-71
2023/03/14 13:03:35;;;;;;;0.30;0.30;;;;;;;;;;4966809;28;20561;-72
2023/03/14 13:06:04;;;;;;;0.20;0.20;;;;;;;;;;4972214;28;20145;-71
2023/03/14 13:08:47;;;;;;;0.20;0.20;;;;;;;;;;4969522;28;20077;-71
2023/03/14 13:11:18;;;;;;;0.15;0.15;;;;;;;;;;4971820;28;20164;-71
2023/03/14 13:13:57;;;;;;;0.10;0.10;;;;;;;;;;4964855;28;20726;-70
2023/03/14 13:16:23;;;;;;;0.32;0.20;;;;;;;;;;4971442;28;20042;-70
2023/03/14 13:18:51;;;;;;;0.95;0.30;;;;;;;;;;4969632;28;20054;-70
2023/03/14 13:21:19;;;;;;;0.10;0.10;;;;;;;;;;4962898;28;20043;-70
2023/03/14 13:23:58;;;;;;;1.58;0.28;;;;;;;;;;4967225;28;20047;-70
2023/03/14 13:26:31;;;;;;;0.22;0.20;;;;;;;;;;4960698;28;20053;-71
2023/03/14 13:28:57;;;;;;;0.28;0.28;;;;;;;;;;4969193;28;20058;-71
2023/03/14 13:31:25;;;;;;;0.35;0.30;;;;;;;;;;4969238;28;20117;-71
2023/03/14 13:34:01;;;;;;;0.10;0.10;;;;;;;;;;4966662;28;20073;-70
2023/03/14 13:36:27;;;;;;;0.10;0.10;;;;;;;;;;4967628;28;20046;-71
2023/03/14 13:38:58;;;;;;;0.20;0.20;;;;;;;;;;4964841;28;20042;-71
2023/03/14 13:41:25;;;;;;;0.27;0.20;;;;;;;;;;4963596;28;20035;-71
2023/03/14 13:43:51;;;;;;;0.35;0.20;;;;;;;;;;4968374;28;20060;-71
2023/03/14 13:46:21;;;;;;;0.20;0.20;;;;;;;;;;4970266;28;20054;-71
2023/03/14 13:48:50;;;;;;;0.85;0.20;;;;;;;;;;4973167;28;20065;-71
2023/03/14 13:51:20;;;;;;;0.20;0.20;;;;;;;;;;4962053;28;20100;-72
2023/03/14 13:53:51;;;;;;;0.32;0.17;;;;;;;;;;4968901;28;20866;-70
2023/03/14 13:56:28;;;;;;;1.08;0.20;;;;;;;;;;4964789;28;20038;-71
2023/03/14 13:58:54;;;;;;;0.38;0.10;;;;;;;;;;4971347;28;20042;-71
2023/03/14 14:01:31;;;;;;;0.30;0.30;;;;;;;;;;4961085;28;20082;-71
2023/03/14 14:03:57;;;;;;;0.43;0.20;;;;;;;;;;4967466;28;20050;-71
2023/03/14 14:06:27;;;;;;;0.20;0.20;;;;;;;;;;4967812;28;20057;-71
2023/03/14 14:08:53;;;;;;;1.40;0.30;;;;;;;;;;4964966;28;20711;-71
2023/03/14 14:11:28;;;;;;;0.20;0.20;;;;;;;;;;4961915;28;20054;-72
2023/03/14 14:13:54;;;;;;;0.68;0.30;;;;;;;;;;4966701;28;20047;-71
2023/03/14 14:16:24;;;;;;;0.15;0.15;;;;;;;;;;4968574;28;20051;-71
2023/03/14 14:18:51;;;;;;;0.30;0.25;;;;;;;;;;4961021;28;20417;-71
2023/03/14 14:21:17;;;;;;;0.40;0.30;;;;;;;;;;4966605;28;20046;-71
2023/03/14 14:23:42;;;;;;;0.20;0.20;;;;;;;;;;4962909;28;20126;-71
2023/03/14 14:26:08;;;;;;;0.20;0.20;;;;;;;;;;4971141;28;20476;-72
2023/03/14 14:28:37;;;;;;;0.35;0.35;;;;;;;;;;4969636;28;20524;-71
2023/03/14 14:31:21;;;;;;;0.52;0.30;;;;;;;;;;4972737;28;20050;-72
2023/03/14 14:33:58;;;;;;;0.43;0.30;;;;;;;;;;4941064;28;20080;-71
2023/03/14 14:36:40;;;;;;;0.43;0.30;;;;;;;;;;4967656;28;20054;-71
2023/03/14 14:39:24;;;;;;;0.43;0.43;;;;;;;;;;4972841;28;20039;-71
2023/03/14 14:41:51;;;;;;;0.20;0.20;;;;;;;;;;4943765;28;20046;-71
2023/03/14 14:44:21;;;;;;;0.30;0.30;;;;;;;;;;4964146;28;20512;-70
2023/03/14 14:46:47;;;;;;;0.20;0.20;;;;;;;;;;4965544;28;20418;-71
2023/03/14 14:49:14;;;;;;;0.70;0.30;;;;;;;;;;4964866;28;20046;-71
2023/03/14 14:51:43;;;;;;;0.20;0.20;;;;;;;;;;4965541;28;20073;-71
2023/03/14 14:54:17;;;;;;;0.25;0.25;;;;;;;;;;4974375;28;20171;-71
2023/03/14 14:56:51;;;;;;;0.88;0.40;;;;;;;;;;4966631;28;20056;-72
2023/03/14 14:59:24;;;;;;;0.32;0.32;;;;;;;;;;4963056;28;20078;-71
2023/03/14 15:01:50;;;;;;;0.30;0.30;;;;;;;;;;4967760;28;20064;-70
2023/03/14 15:04:16;;;;;;;0.30;0.30;;;;;;;;;;4955083;28;20042;-71
2023/03/14 15:06:45;;;;;;;0.50;0.40;;;;;;;;;;4963628;28;20073;-71
2023/03/14 15:09:11;;;;;;;0.30;0.30;;;;;;;;;;4963445;28;20043;-71